sensor_id;sensor_type;location;lat;lon;timestamp;P1;durP1;ratioP1;P2;durP2;ratioP2
59169;SDS011;52474;52.236;5.114;2023-06-10T00:01:29;16.77;;;4.95;;
59169;SDS011;52474;52.236;5.114;2023-06-10T00:03:55;9.57;;;4.40;;
59169;SDS011;52474;52.236;5.114;2023-06-10T00:06:21;7.43;;;4.68;;
59169;SDS011;52474;52.236;5.114;2023-06-10T00:08:50;6.68;;;4.38;;
59169;SDS011;52474;52.236;5.114;2023-06-10T00:11:16;5.65;;;4.00;;
59169;SDS011;52474;52.236;5.114;2023-06-10T00:13:42;6.85;;;4.32;;
59169;SDS011;52474;52.236;5.114;2023-06-10T00:16:08;6.78;;;4.50;;
59169;SDS011;52474;52.236;5.114;2023-06-10T00:18:33;5.72;;;4.25;;
59169;SDS011;52474;52.236;5.114;2023-06-10T00:21:02;11.18;;;4.32;;
59169;SDS011;52474;52.236;5.114;2023-06-10T00:23:30;6.32;;;4.20;;
59169;SDS011;52474;52.236;5.114;2023-06-10T00:26:00;6.43;;;4.13;;
59169;SDS011;52474;52.236;5.114;2023-06-10T00:28:25;7.40;;;4.30;;
59169;SDS011;52474;52.236;5.114;2023-06-10T00:30:51;8.35;;;4.60;;
59169;SDS011;52474;52.236;5.114;2023-06-10T00:33:17;5.43;;;3.63;;
59169;SDS011;52474;52.236;5.114;2023-06-10T00:35:42;6.40;;;4.30;;
59169;SDS011;52474;52.236;5.114;2023-06-10T00:38:08;8.05;;;4.22;;
59169;SDS011;52474;52.236;5.114;2023-06-10T00:40:39;9.68;;;4.35;;
59169;SDS011;52474;52.236;5.114;2023-06-10T00:43:06;6.13;;;4.10;;
59169;SDS011;52474;52.236;5.114;2023-06-10T00:45:32;8.13;;;3.80;;
59169;SDS011;52474;52.236;5.114;2023-06-10T00:47:59;8.77;;;4.28;;
59169;SDS011;52474;52.236;5.114;2023-06-10T00:50:26;7.75;;;4.25;;
59169;SDS011;52474;52.236;5.114;2023-06-10T00:52:53;4.78;;;3.88;;
59169;SDS011;52474;52.236;5.114;2023-06-10T00:55:19;6.93;;;4.32;;
59169;SDS011;52474;52.236;5.114;2023-06-10T00:57:46;7.88;;;4.50;;
59169;SDS011;52474;52.236;5.114;2023-06-10T01:00:14;7.75;;;4.15;;
59169;SDS011;52474;52.236;5.114;2023-06-10T01:02:40;7.13;;;4.40;;
59169;SDS011;52474;52.236;5.114;2023-06-10T01:05:06;12.95;;;4.28;;
59169;SDS011;52474;52.236;5.114;2023-06-10T01:07:37;7.65;;;4.35;;
59169;SDS011;52474;52.236;5.114;2023-06-10T01:10:20;6.07;;;4.20;;
59169;SDS011;52474;52.236;5.114;2023-06-10T01:15:24;8.00;;;4.20;;
59169;SDS011;52474;52.236;5.114;2023-06-10T01:20:30;7.05;;;4.07;;
59169;SDS011;52474;52.236;5.114;2023-06-10T01:22:58;4.97;;;3.97;;
59169;SDS011;52474;52.236;5.114;2023-06-10T01:25:26;6.13;;;4.30;;
59169;SDS011;52474;52.236;5.114;2023-06-10T01:33:21;5.97;;;4.13;;
59169;SDS011;52474;52.236;5.114;2023-06-10T01:35:55;6.75;;;4.30;;
59169;SDS011;52474;52.236;5.114;2023-06-10T01:38:23;6.72;;;4.53;;
59169;SDS011;52474;52.236;5.114;2023-06-10T01:40:52;8.13;;;4.37;;
59169;SDS011;52474;52.236;5.114;2023-06-10T01:43:22;7.50;;;4.30;;
59169;SDS011;52474;52.236;5.114;2023-06-10T01:45:48;8.57;;;4.43;;
59169;SDS011;52474;52.236;5.114;2023-06-10T01:48:14;9.60;;;4.40;;
59169;SDS011;52474;52.236;5.114;2023-06-10T01:50:41;7.88;;;4.60;;
59169;SDS011;52474;52.236;5.114;2023-06-10T01:53:07;7.78;;;4.55;;
59169;SDS011;52474;52.236;5.114;2023-06-10T01:55:32;7.07;;;4.28;;
59169;SDS011;52474;52.236;5.114;2023-06-10T01:57:58;7.20;;;4.05;;
59169;SDS011;52474;52.236;5.114;2023-06-10T02:00:24;7.32;;;4.80;;
59169;SDS011;52474;52.236;5.114;2023-06-10T02:02:49;7.75;;;4.70;;
59169;SDS011;52474;52.236;5.114;2023-06-10T02:05:15;12.57;;;4.63;;
59169;SDS011;52474;52.236;5.114;2023-06-10T02:07:41;9.30;;;4.72;;
59169;SDS011;52474;52.236;5.114;2023-06-10T02:10:07;7.55;;;4.68;;
59169;SDS011;52474;52.236;5.114;2023-06-10T02:12:33;8.02;;;4.43;;
59169;SDS011;52474;52.236;5.114;2023-06-10T02:14:59;8.20;;;4.80;;
59169;SDS011;52474;52.236;5.114;2023-06-10T02:17:25;6.05;;;4.68;;
59169;SDS011;52474;52.236;5.114;2023-06-10T02:19:51;9.32;;;5.07;;
59169;SDS011;52474;52.236;5.114;2023-06-10T02:22:21;5.95;;;4.65;;
59169;SDS011;52474;52.236;5.114;2023-06-10T02:24:47;9.68;;;4.72;;
59169;SDS011;52474;52.236;5.114;2023-06-10T02:27:13;8.98;;;5.20;;
59169;SDS011;52474;52.236;5.114;2023-06-10T02:29:38;6.22;;;4.30;;
59169;SDS011;52474;52.236;5.114;2023-06-10T02:32:04;7.63;;;4.50;;
59169;SDS011;52474;52.236;5.114;2023-06-10T02:34:31;8.20;;;4.75;;
59169;SDS011;52474;52.236;5.114;2023-06-10T02:36:57;10.65;;;4.80;;
59169;SDS011;52474;52.236;5.114;2023-06-10T02:39:23;6.03;;;4.40;;
59169;SDS011;52474;52.236;5.114;2023-06-10T02:41:50;6.05;;;4.65;;
59169;SDS011;52474;52.236;5.114;2023-06-10T02:44:17;7.78;;;4.70;;
59169;SDS011;52474;52.236;5.114;2023-06-10T02:46:44;6.57;;;4.50;;
59169;SDS011;52474;52.236;5.114;2023-06-10T02:49:11;6.75;;;4.80;;
59169;SDS011;52474;52.236;5.114;2023-06-10T02:51:37;8.48;;;4.53;;
59169;SDS011;52474;52.236;5.114;2023-06-10T02:54:04;7.82;;;4.70;;
59169;SDS011;52474;52.236;5.114;2023-06-10T02:56:30;5.70;;;4.30;;
59169;SDS011;52474;52.236;5.114;2023-06-10T03:01:27;7.63;;;5.00;;
59169;SDS011;52474;52.236;5.114;2023-06-10T03:04:05;7.30;;;5.13;;
59169;SDS011;52474;52.236;5.114;2023-06-10T03:06:33;7.20;;;4.68;;
59169;SDS011;52474;52.236;5.114;2023-06-10T03:09:09;7.13;;;4.57;;
59169;SDS011;52474;52.236;5.114;2023-06-10T03:11:36;9.23;;;4.95;;
59169;SDS011;52474;52.236;5.114;2023-06-10T03:14:03;5.70;;;4.72;;
59169;SDS011;52474;52.236;5.114;2023-06-10T03:16:30;8.93;;;4.90;;
59169;SDS011;52474;52.236;5.114;2023-06-10T03:18:57;8.68;;;5.53;;
59169;SDS011;52474;52.236;5.114;2023-06-10T03:21:22;8.48;;;5.07;;
59169;SDS011;52474;52.236;5.114;2023-06-10T03:23:48;8.95;;;5.15;;
59169;SDS011;52474;52.236;5.114;2023-06-10T03:26:14;9.02;;;4.75;;
59169;SDS011;52474;52.236;5.114;2023-06-10T03:28:44;8.80;;;5.13;;
59169;SDS011;52474;52.236;5.114;2023-06-10T03:31:10;9.50;;;4.80;;
59169;SDS011;52474;52.236;5.114;2023-06-10T03:33:36;10.65;;;5.07;;
59169;SDS011;52474;52.236;5.114;2023-06-10T03:36:03;8.02;;;5.32;;
59169;SDS011;52474;52.236;5.114;2023-06-10T03:38:30;6.85;;;5.00;;
59169;SDS011;52474;52.236;5.114;2023-06-10T03:40:55;7.32;;;5.10;;
59169;SDS011;52474;52.236;5.114;2023-06-10T03:43:22;8.65;;;5.10;;
59169;SDS011;52474;52.236;5.114;2023-06-10T03:45:49;10.57;;;4.65;;
59169;SDS011;52474;52.236;5.114;2023-06-10T03:48:15;9.40;;;5.82;;
59169;SDS011;52474;52.236;5.114;2023-06-10T03:50:46;10.18;;;5.10;;
59169;SDS011;52474;52.236;5.114;2023-06-10T03:53:14;6.63;;;5.07;;
59169;SDS011;52474;52.236;5.114;2023-06-10T03:55:42;10.38;;;5.22;;
59169;SDS011;52474;52.236;5.114;2023-06-10T03:58:07;7.50;;;5.13;;
59169;SDS011;52474;52.236;5.114;2023-06-10T04:00:33;11.20;;;5.18;;
59169;SDS011;52474;52.236;5.114;2023-06-10T04:03:07;10.98;;;5.50;;
59169;SDS011;52474;52.236;5.114;2023-06-10T04:05:38;7.88;;;5.13;;
59169;SDS011;52474;52.236;5.114;2023-06-10T04:08:03;9.18;;;4.82;;
59169;SDS011;52474;52.236;5.114;2023-06-10T04:10:30;7.88;;;5.00;;
59169;SDS011;52474;52.236;5.114;2023-06-10T04:12:56;8.93;;;5.40;;
59169;SDS011;52474;52.236;5.114;2023-06-10T04:15:24;8.07;;;5.10;;
59169;SDS011;52474;52.236;5.114;2023-06-10T04:17:50;9.30;;;4.97;;
59169;SDS011;52474;52.236;5.114;2023-06-10T04:20:20;9.80;;;5.15;;
59169;SDS011;52474;52.236;5.114;2023-06-10T04:22:47;9.13;;;4.80;;
59169;SDS011;52474;52.236;5.114;2023-06-10T04:25:14;9.02;;;5.30;;
59169;SDS011;52474;52.236;5.114;2023-06-10T04:27:40;11.85;;;5.70;;
59169;SDS011;52474;52.236;5.114;2023-06-10T04:30:07;7.05;;;4.95;;
59169;SDS011;52474;52.236;5.114;2023-06-10T04:32:35;9.52;;;4.85;;
59169;SDS011;52474;52.236;5.114;2023-06-10T04:35:01;8.50;;;5.10;;
59169;SDS011;52474;52.236;5.114;2023-06-10T04:37:27;9.93;;;5.38;;
59169;SDS011;52474;52.236;5.114;2023-06-10T04:39:54;8.02;;;4.93;;
59169;SDS011;52474;52.236;5.114;2023-06-10T04:42:20;8.63;;;5.30;;
59169;SDS011;52474;52.236;5.114;2023-06-10T04:44:45;10.55;;;5.65;;
59169;SDS011;52474;52.236;5.114;2023-06-10T04:47:11;9.18;;;4.95;;
59169;SDS011;52474;52.236;5.114;2023-06-10T04:49:37;8.75;;;5.18;;
59169;SDS011;52474;52.236;5.114;2023-06-10T04:52:03;8.20;;;5.30;;
59169;SDS011;52474;52.236;5.114;2023-06-10T04:54:34;11.00;;;5.32;;
59169;SDS011;52474;52.236;5.114;2023-06-10T04:56:59;8.60;;;4.93;;
59169;SDS011;52474;52.236;5.114;2023-06-10T04:59:28;10.43;;;5.35;;
59169;SDS011;52474;52.236;5.114;2023-06-10T05:01:55;11.20;;;5.05;;
59169;SDS011;52474;52.236;5.114;2023-06-10T05:04:20;9.57;;;5.80;;
59169;SDS011;52474;52.236;5.114;2023-06-10T05:06:46;11.57;;;5.57;;
59169;SDS011;52474;52.236;5.114;2023-06-10T05:09:11;10.48;;;5.60;;
59169;SDS011;52474;52.236;5.114;2023-06-10T05:11:37;11.68;;;6.05;;
59169;SDS011;52474;52.236;5.114;2023-06-10T05:14:03;8.57;;;5.70;;
59169;SDS011;52474;52.236;5.114;2023-06-10T05:16:28;8.82;;;5.70;;
59169;SDS011;52474;52.236;5.114;2023-06-10T05:18:54;8.13;;;5.43;;
59169;SDS011;52474;52.236;5.114;2023-06-10T05:21:20;10.88;;;5.25;;
59169;SDS011;52474;52.236;5.114;2023-06-10T05:23:45;7.43;;;5.20;;
59169;SDS011;52474;52.236;5.114;2023-06-10T05:26:11;13.25;;;5.70;;
59169;SDS011;52474;52.236;5.114;2023-06-10T05:28:37;12.00;;;5.90;;
59169;SDS011;52474;52.236;5.114;2023-06-10T05:31:02;8.48;;;5.38;;
59169;SDS011;52474;52.236;5.114;2023-06-10T05:33:28;8.55;;;5.30;;
59169;SDS011;52474;52.236;5.114;2023-06-10T05:35:54;9.40;;;5.22;;
59169;SDS011;52474;52.236;5.114;2023-06-10T05:38:19;10.77;;;5.88;;
59169;SDS011;52474;52.236;5.114;2023-06-10T05:40:45;11.18;;;5.35;;
59169;SDS011;52474;52.236;5.114;2023-06-10T05:43:11;9.77;;;5.95;;
59169;SDS011;52474;52.236;5.114;2023-06-10T05:45:37;8.40;;;5.55;;
59169;SDS011;52474;52.236;5.114;2023-06-10T05:48:03;10.00;;;5.53;;
59169;SDS011;52474;52.236;5.114;2023-06-10T05:50:29;8.82;;;5.60;;
59169;SDS011;52474;52.236;5.114;2023-06-10T05:52:55;12.15;;;6.38;;
59169;SDS011;52474;52.236;5.114;2023-06-10T05:55:20;11.10;;;6.20;;
59169;SDS011;52474;52.236;5.114;2023-06-10T05:57:46;11.65;;;5.90;;
59169;SDS011;52474;52.236;5.114;2023-06-10T06:00:12;9.95;;;5.80;;
59169;SDS011;52474;52.236;5.114;2023-06-10T06:02:38;8.05;;;5.28;;
59169;SDS011;52474;52.236;5.114;2023-06-10T06:05:04;10.40;;;6.10;;
59169;SDS011;52474;52.236;5.114;2023-06-10T06:07:30;7.57;;;5.47;;
59169;SDS011;52474;52.236;5.114;2023-06-10T06:09:56;9.25;;;5.95;;
59169;SDS011;52474;52.236;5.114;2023-06-10T06:12:21;8.95;;;5.55;;
59169;SDS011;52474;52.236;5.114;2023-06-10T06:14:47;7.93;;;5.32;;
59169;SDS011;52474;52.236;5.114;2023-06-10T06:17:14;9.73;;;5.72;;
59169;SDS011;52474;52.236;5.114;2023-06-10T06:19:40;8.77;;;6.32;;
59169;SDS011;52474;52.236;5.114;2023-06-10T06:22:05;9.70;;;5.60;;
59169;SDS011;52474;52.236;5.114;2023-06-10T06:24:31;8.10;;;5.60;;
59169;SDS011;52474;52.236;5.114;2023-06-10T06:26:57;8.00;;;5.60;;
59169;SDS011;52474;52.236;5.114;2023-06-10T06:29:22;8.10;;;5.47;;
59169;SDS011;52474;52.236;5.114;2023-06-10T06:31:48;8.75;;;5.85;;
59169;SDS011;52474;52.236;5.114;2023-06-10T06:34:13;11.43;;;5.95;;
59169;SDS011;52474;52.236;5.114;2023-06-10T06:36:39;8.15;;;5.97;;
59169;SDS011;52474;52.236;5.114;2023-06-10T06:39:05;7.38;;;5.40;;
59169;SDS011;52474;52.236;5.114;2023-06-10T06:41:31;9.63;;;5.80;;
59169;SDS011;52474;52.236;5.114;2023-06-10T06:43:57;7.90;;;5.72;;
59169;SDS011;52474;52.236;5.114;2023-06-10T06:46:23;7.55;;;5.80;;
59169;SDS011;52474;52.236;5.114;2023-06-10T06:48:49;10.38;;;5.80;;
59169;SDS011;52474;52.236;5.114;2023-06-10T06:51:15;7.35;;;5.70;;
59169;SDS011;52474;52.236;5.114;2023-06-10T06:53:40;7.80;;;5.47;;
59169;SDS011;52474;52.236;5.114;2023-06-10T06:56:10;9.27;;;5.40;;
59169;SDS011;52474;52.236;5.114;2023-06-10T06:58:37;6.82;;;5.25;;
59169;SDS011;52474;52.236;5.114;2023-06-10T07:01:03;10.82;;;5.95;;
59169;SDS011;52474;52.236;5.114;2023-06-10T07:03:29;7.07;;;5.30;;
59169;SDS011;52474;52.236;5.114;2023-06-10T07:05:55;7.35;;;4.95;;
59169;SDS011;52474;52.236;5.114;2023-06-10T07:08:21;7.13;;;5.05;;
59169;SDS011;52474;52.236;5.114;2023-06-10T07:10:46;7.45;;;5.22;;
59169;SDS011;52474;52.236;5.114;2023-06-10T07:13:12;7.70;;;5.45;;
59169;SDS011;52474;52.236;5.114;2023-06-10T07:15:38;8.73;;;5.55;;
59169;SDS011;52474;52.236;5.114;2023-06-10T07:18:04;8.80;;;5.63;;
59169;SDS011;52474;52.236;5.114;2023-06-10T07:20:30;8.20;;;5.60;;
59169;SDS011;52474;52.236;5.114;2023-06-10T07:22:55;8.20;;;5.35;;
59169;SDS011;52474;52.236;5.114;2023-06-10T07:25:21;6.55;;;5.18;;
59169;SDS011;52474;52.236;5.114;2023-06-10T07:27:47;6.88;;;5.13;;
59169;SDS011;52474;52.236;5.114;2023-06-10T07:30:12;9.05;;;5.82;;
59169;SDS011;52474;52.236;5.114;2023-06-10T07:32:38;9.70;;;5.05;;
59169;SDS011;52474;52.236;5.114;2023-06-10T07:35:06;7.60;;;5.50;;
59169;SDS011;52474;52.236;5.114;2023-06-10T07:37:35;6.07;;;4.90;;
59169;SDS011;52474;52.236;5.114;2023-06-10T07:40:01;7.75;;;5.20;;
59169;SDS011;52474;52.236;5.114;2023-06-10T07:42:27;8.27;;;5.10;;
59169;SDS011;52474;52.236;5.114;2023-06-10T07:44:53;6.15;;;5.20;;
59169;SDS011;52474;52.236;5.114;2023-06-10T07:47:19;7.82;;;5.15;;
59169;SDS011;52474;52.236;5.114;2023-06-10T07:49:44;5.65;;;5.07;;
59169;SDS011;52474;52.236;5.114;2023-06-10T07:52:10;8.30;;;5.15;;
59169;SDS011;52474;52.236;5.114;2023-06-10T07:54:36;7.25;;;5.15;;
59169;SDS011;52474;52.236;5.114;2023-06-10T07:57:01;7.60;;;5.30;;
59169;SDS011;52474;52.236;5.114;2023-06-10T07:59:27;7.28;;;5.60;;
59169;SDS011;52474;52.236;5.114;2023-06-10T08:01:53;7.35;;;5.15;;
59169;SDS011;52474;52.236;5.114;2023-06-10T08:04:18;6.28;;;5.10;;
59169;SDS011;52474;52.236;5.114;2023-06-10T08:06:44;10.13;;;5.57;;
59169;SDS011;52474;52.236;5.114;2023-06-10T08:09:10;6.50;;;5.13;;
59169;SDS011;52474;52.236;5.114;2023-06-10T08:11:36;8.98;;;5.35;;
59169;SDS011;52474;52.236;5.114;2023-06-10T08:14:01;5.90;;;4.97;;
59169;SDS011;52474;52.236;5.114;2023-06-10T08:16:27;6.60;;;4.65;;
59169;SDS011;52474;52.236;5.114;2023-06-10T08:18:53;7.00;;;5.30;;
59169;SDS011;52474;52.236;5.114;2023-06-10T08:21:18;6.95;;;5.25;;
59169;SDS011;52474;52.236;5.114;2023-06-10T08:23:44;8.20;;;5.15;;
59169;SDS011;52474;52.236;5.114;2023-06-10T08:26:10;5.90;;;4.88;;
59169;SDS011;52474;52.236;5.114;2023-06-10T08:28:36;10.63;;;5.18;;
59169;SDS011;52474;52.236;5.114;2023-06-10T08:31:01;5.95;;;4.75;;
59169;SDS011;52474;52.236;5.114;2023-06-10T08:33:27;6.57;;;5.88;;
59169;SDS011;52474;52.236;5.114;2023-06-10T08:35:53;8.23;;;5.63;;
59169;SDS011;52474;52.236;5.114;2023-06-10T08:38:18;6.53;;;5.10;;
59169;SDS011;52474;52.236;5.114;2023-06-10T08:40:44;8.52;;;5.60;;
59169;SDS011;52474;52.236;5.114;2023-06-10T08:43:14;7.75;;;5.13;;
59169;SDS011;52474;52.236;5.114;2023-06-10T08:45:45;7.20;;;5.13;;
59169;SDS011;52474;52.236;5.114;2023-06-10T08:48:14;6.53;;;4.70;;
59169;SDS011;52474;52.236;5.114;2023-06-10T08:50:42;6.20;;;4.97;;
59169;SDS011;52474;52.236;5.114;2023-06-10T08:53:08;8.57;;;5.28;;
59169;SDS011;52474;52.236;5.114;2023-06-10T08:55:41;7.72;;;5.03;;
59169;SDS011;52474;52.236;5.114;2023-06-10T08:58:09;7.53;;;5.13;;
59169;SDS011;52474;52.236;5.114;2023-06-10T09:00:35;8.77;;;4.65;;
59169;SDS011;52474;52.236;5.114;2023-06-10T09:03:02;7.35;;;5.38;;
59169;SDS011;52474;52.236;5.114;2023-06-10T09:05:28;5.45;;;4.85;;
59169;SDS011;52474;52.236;5.114;2023-06-10T09:07:54;5.68;;;5.10;;
59169;SDS011;52474;52.236;5.114;2023-06-10T09:10:23;7.25;;;5.03;;
59169;SDS011;52474;52.236;5.114;2023-06-10T09:12:48;6.68;;;5.00;;
59169;SDS011;52474;52.236;5.114;2023-06-10T09:15:14;9.10;;;5.22;;
59169;SDS011;52474;52.236;5.114;2023-06-10T09:17:42;7.25;;;5.30;;
59169;SDS011;52474;52.236;5.114;2023-06-10T09:20:08;5.20;;;4.50;;
59169;SDS011;52474;52.236;5.114;2023-06-10T09:22:34;6.57;;;5.32;;
59169;SDS011;52474;52.236;5.114;2023-06-10T09:27:31;6.65;;;5.50;;
59169;SDS011;52474;52.236;5.114;2023-06-10T09:29:59;7.32;;;5.22;;
59169;SDS011;52474;52.236;5.114;2023-06-10T09:32:25;7.22;;;5.18;;
59169;SDS011;52474;52.236;5.114;2023-06-10T09:34:52;7.20;;;5.57;;
59169;SDS011;52474;52.236;5.114;2023-06-10T09:37:21;5.90;;;4.97;;
59169;SDS011;52474;52.236;5.114;2023-06-10T09:40:01;6.93;;;4.70;;
59169;SDS011;52474;52.236;5.114;2023-06-10T09:42:29;7.18;;;5.00;;
59169;SDS011;52474;52.236;5.114;2023-06-10T09:44:58;5.72;;;5.18;;
59169;SDS011;52474;52.236;5.114;2023-06-10T09:47:23;6.25;;;5.07;;
59169;SDS011;52474;52.236;5.114;2023-06-10T09:49:49;7.18;;;5.00;;
59169;SDS011;52474;52.236;5.114;2023-06-10T09:52:25;7.63;;;5.00;;
59169;SDS011;52474;52.236;5.114;2023-06-10T09:54:53;5.15;;;4.57;;
59169;SDS011;52474;52.236;5.114;2023-06-10T09:57:23;8.02;;;5.15;;
59169;SDS011;52474;52.236;5.114;2023-06-10T09:59:52;5.82;;;4.88;;
59169;SDS011;52474;52.236;5.114;2023-06-10T10:02:19;7.50;;;5.10;;
59169;SDS011;52474;52.236;5.114;2023-06-10T10:04:45;7.38;;;4.93;;
59169;SDS011;52474;52.236;5.114;2023-06-10T10:07:11;5.90;;;4.90;;
59169;SDS011;52474;52.236;5.114;2023-06-10T10:09:37;5.85;;;4.90;;
59169;SDS011;52474;52.236;5.114;2023-06-10T10:12:10;6.72;;;4.68;;
59169;SDS011;52474;52.236;5.114;2023-06-10T10:14:38;7.32;;;4.70;;
59169;SDS011;52474;52.236;5.114;2023-06-10T10:17:10;5.38;;;4.35;;
59169;SDS011;52474;52.236;5.114;2023-06-10T10:19:39;6.05;;;4.90;;
59169;SDS011;52474;52.236;5.114;2023-06-10T10:22:10;6.55;;;4.80;;
59169;SDS011;52474;52.236;5.114;2023-06-10T10:24:49;9.65;;;4.75;;
59169;SDS011;52474;52.236;5.114;2023-06-10T10:30:20;5.97;;;4.93;;
59169;SDS011;52474;52.236;5.114;2023-06-10T10:33:06;6.68;;;4.97;;
59169;SDS011;52474;52.236;5.114;2023-06-10T10:35:37;5.85;;;5.13;;
59169;SDS011;52474;52.236;5.114;2023-06-10T10:38:03;6.32;;;5.03;;
59169;SDS011;52474;52.236;5.114;2023-06-10T10:40:30;6.00;;;4.82;;
59169;SDS011;52474;52.236;5.114;2023-06-10T10:42:58;5.45;;;4.95;;
59169;SDS011;52474;52.236;5.114;2023-06-10T10:45:27;5.32;;;4.70;;
59169;SDS011;52474;52.236;5.114;2023-06-10T10:47:53;8.30;;;4.97;;
59169;SDS011;52474;52.236;5.114;2023-06-10T10:50:21;5.25;;;4.75;;
59169;SDS011;52474;52.236;5.114;2023-06-10T10:52:52;6.53;;;5.32;;
59169;SDS011;52474;52.236;5.114;2023-06-10T10:55:24;9.60;;;4.93;;
59169;SDS011;52474;52.236;5.114;2023-06-10T11:00:30;6.88;;;4.82;;
59169;SDS011;52474;52.236;5.114;2023-06-10T11:03:15;5.50;;;4.90;;
59169;SDS011;52474;52.236;5.114;2023-06-10T11:05:43;4.93;;;4.43;;
59169;SDS011;52474;52.236;5.114;2023-06-10T11:08:13;7.32;;;4.80;;
59169;SDS011;52474;52.236;5.114;2023-06-10T11:10:40;6.85;;;4.90;;
59169;SDS011;52474;52.236;5.114;2023-06-10T11:13:18;7.45;;;4.57;;
59169;SDS011;52474;52.236;5.114;2023-06-10T11:15:46;7.85;;;4.85;;
59169;SDS011;52474;52.236;5.114;2023-06-10T11:18:20;5.28;;;4.38;;
59169;SDS011;52474;52.236;5.114;2023-06-10T11:23:38;6.18;;;4.68;;
59169;SDS011;52474;52.236;5.114;2023-06-10T11:31:26;6.78;;;5.13;;
59169;SDS011;52474;52.236;5.114;2023-06-10T11:33:53;5.30;;;4.47;;
59169;SDS011;52474;52.236;5.114;2023-06-10T11:36:20;6.10;;;4.63;;
59169;SDS011;52474;52.236;5.114;2023-06-10T11:38:52;7.45;;;4.60;;
59169;SDS011;52474;52.236;5.114;2023-06-10T11:41:20;6.40;;;5.25;;
59169;SDS011;52474;52.236;5.114;2023-06-10T11:43:46;5.00;;;4.60;;
59169;SDS011;52474;52.236;5.114;2023-06-10T11:46:13;9.43;;;5.00;;
59169;SDS011;52474;52.236;5.114;2023-06-10T11:48:48;6.13;;;4.45;;
59169;SDS011;52474;52.236;5.114;2023-06-10T11:51:17;5.53;;;4.60;;
59169;SDS011;52474;52.236;5.114;2023-06-10T11:53:44;5.40;;;4.65;;
59169;SDS011;52474;52.236;5.114;2023-06-10T11:56:13;6.00;;;4.57;;
59169;SDS011;52474;52.236;5.114;2023-06-10T11:58:44;7.40;;;4.72;;
59169;SDS011;52474;52.236;5.114;2023-06-10T12:01:10;6.25;;;4.35;;
59169;SDS011;52474;52.236;5.114;2023-06-10T12:03:36;5.15;;;4.50;;
59169;SDS011;52474;52.236;5.114;2023-06-10T12:06:04;5.50;;;4.60;;
59169;SDS011;52474;52.236;5.114;2023-06-10T12:08:31;5.60;;;4.72;;
59169;SDS011;52474;52.236;5.114;2023-06-10T12:10:58;5.15;;;4.72;;
59169;SDS011;52474;52.236;5.114;2023-06-10T12:13:27;5.60;;;4.90;;
59169;SDS011;52474;52.236;5.114;2023-06-10T12:18:19;6.75;;;4.57;;
59169;SDS011;52474;52.236;5.114;2023-06-10T12:20:45;7.97;;;4.72;;
59169;SDS011;52474;52.236;5.114;2023-06-10T12:23:11;6.97;;;4.60;;
59169;SDS011;52474;52.236;5.114;2023-06-10T12:25:38;7.80;;;4.30;;
59169;SDS011;52474;52.236;5.114;2023-06-10T12:28:04;7.47;;;4.78;;
59169;SDS011;52474;52.236;5.114;2023-06-10T12:30:31;5.45;;;4.53;;
59169;SDS011;52474;52.236;5.114;2023-06-10T12:32:58;5.68;;;4.40;;
59169;SDS011;52474;52.236;5.114;2023-06-10T12:35:25;5.43;;;4.50;;
59169;SDS011;52474;52.236;5.114;2023-06-10T12:38:04;5.78;;;4.75;;
59169;SDS011;52474;52.236;5.114;2023-06-10T12:40:34;9.43;;;5.30;;
59169;SDS011;52474;52.236;5.114;2023-06-10T12:43:02;7.00;;;4.80;;
59169;SDS011;52474;52.236;5.114;2023-06-10T12:45:37;6.25;;;4.65;;
59169;SDS011;52474;52.236;5.114;2023-06-10T12:48:11;5.65;;;4.50;;
59169;SDS011;52474;52.236;5.114;2023-06-10T12:50:43;6.57;;;4.72;;
59169;SDS011;52474;52.236;5.114;2023-06-10T12:53:10;5.95;;;4.68;;
59169;SDS011;52474;52.236;5.114;2023-06-10T12:55:37;5.82;;;4.55;;
59169;SDS011;52474;52.236;5.114;2023-06-10T12:58:03;5.53;;;4.57;;
59169;SDS011;52474;52.236;5.114;2023-06-10T13:00:29;5.72;;;5.18;;
59169;SDS011;52474;52.236;5.114;2023-06-10T13:02:56;5.20;;;4.68;;
59169;SDS011;52474;52.236;5.114;2023-06-10T13:05:22;8.27;;;5.13;;
59169;SDS011;52474;52.236;5.114;2023-06-10T13:07:48;5.20;;;4.55;;
59169;SDS011;52474;52.236;5.114;2023-06-10T13:10:15;7.20;;;4.95;;
59169;SDS011;52474;52.236;5.114;2023-06-10T13:12:41;5.60;;;5.07;;
59169;SDS011;52474;52.236;5.114;2023-06-10T13:15:08;5.72;;;4.80;;
59169;SDS011;52474;52.236;5.114;2023-06-10T13:17:34;7.55;;;4.82;;
59169;SDS011;52474;52.236;5.114;2023-06-10T13:20:04;6.78;;;4.90;;
59169;SDS011;52474;52.236;5.114;2023-06-10T13:22:31;6.18;;;4.78;;
59169;SDS011;52474;52.236;5.114;2023-06-10T13:24:58;7.88;;;5.40;;
59169;SDS011;52474;52.236;5.114;2023-06-10T13:27:25;6.82;;;4.63;;
59169;SDS011;52474;52.236;5.114;2023-06-10T13:29:50;7.25;;;4.97;;
59169;SDS011;52474;52.236;5.114;2023-06-10T13:32:16;7.05;;;4.47;;
59169;SDS011;52474;52.236;5.114;2023-06-10T13:34:42;4.78;;;4.40;;
59169;SDS011;52474;52.236;5.114;2023-06-10T13:37:07;7.25;;;4.82;;
59169;SDS011;52474;52.236;5.114;2023-06-10T13:39:33;6.85;;;4.50;;
59169;SDS011;52474;52.236;5.114;2023-06-10T13:41:58;5.97;;;5.10;;
59169;SDS011;52474;52.236;5.114;2023-06-10T13:44:24;7.55;;;4.68;;
59169;SDS011;52474;52.236;5.114;2023-06-10T13:46:50;6.28;;;4.55;;
59169;SDS011;52474;52.236;5.114;2023-06-10T13:49:16;5.90;;;5.10;;
59169;SDS011;52474;52.236;5.114;2023-06-10T13:51:41;8.40;;;4.63;;
59169;SDS011;52474;52.236;5.114;2023-06-10T13:54:07;5.97;;;4.45;;
59169;SDS011;52474;52.236;5.114;2023-06-10T13:56:33;6.25;;;4.55;;
59169;SDS011;52474;52.236;5.114;2023-06-10T13:59:03;6.15;;;4.80;;
59169;SDS011;52474;52.236;5.114;2023-06-10T14:01:29;5.60;;;4.68;;
59169;SDS011;52474;52.236;5.114;2023-06-10T14:03:55;7.05;;;4.95;;
59169;SDS011;52474;52.236;5.114;2023-06-10T14:06:20;5.45;;;4.53;;
59169;SDS011;52474;52.236;5.114;2023-06-10T14:08:46;7.85;;;5.15;;
59169;SDS011;52474;52.236;5.114;2023-06-10T14:11:12;6.13;;;4.63;;
59169;SDS011;52474;52.236;5.114;2023-06-10T14:13:37;5.82;;;4.95;;
59169;SDS011;52474;52.236;5.114;2023-06-10T14:16:04;4.97;;;4.47;;
59169;SDS011;52474;52.236;5.114;2023-06-10T14:18:30;5.70;;;4.88;;
59169;SDS011;52474;52.236;5.114;2023-06-10T14:20:56;5.68;;;4.80;;
59169;SDS011;52474;52.236;5.114;2023-06-10T14:23:21;5.05;;;4.32;;
59169;SDS011;52474;52.236;5.114;2023-06-10T14:25:47;4.57;;;4.18;;
59169;SDS011;52474;52.236;5.114;2023-06-10T14:28:13;8.00;;;4.45;;
59169;SDS011;52474;52.236;5.114;2023-06-10T14:30:38;5.97;;;4.50;;
59169;SDS011;52474;52.236;5.114;2023-06-10T14:33:04;8.38;;;4.60;;
59169;SDS011;52474;52.236;5.114;2023-06-10T14:35:31;5.93;;;4.30;;
59169;SDS011;52474;52.236;5.114;2023-06-10T14:37:56;6.45;;;4.32;;
59169;SDS011;52474;52.236;5.114;2023-06-10T14:40:22;7.20;;;4.55;;
59169;SDS011;52474;52.236;5.114;2023-06-10T14:42:49;5.65;;;4.68;;
59169;SDS011;52474;52.236;5.114;2023-06-10T14:45:15;5.25;;;4.43;;
59169;SDS011;52474;52.236;5.114;2023-06-10T14:47:41;5.82;;;4.28;;
59169;SDS011;52474;52.236;5.114;2023-06-10T14:50:06;4.88;;;4.13;;
59169;SDS011;52474;52.236;5.114;2023-06-10T14:52:32;5.20;;;4.35;;
59169;SDS011;52474;52.236;5.114;2023-06-10T14:54:58;6.30;;;4.75;;
59169;SDS011;52474;52.236;5.114;2023-06-10T14:57:24;6.93;;;4.40;;
59169;SDS011;52474;52.236;5.114;2023-06-10T14:59:49;5.43;;;4.40;;
59169;SDS011;52474;52.236;5.114;2023-06-10T15:02:15;6.30;;;4.30;;
59169;SDS011;52474;52.236;5.114;2023-06-10T15:04:41;9.18;;;4.00;;
59169;SDS011;52474;52.236;5.114;2023-06-10T15:07:06;5.40;;;4.38;;
59169;SDS011;52474;52.236;5.114;2023-06-10T15:09:32;5.78;;;4.47;;
59169;SDS011;52474;52.236;5.114;2023-06-10T15:11:58;8.13;;;4.30;;
59169;SDS011;52474;52.236;5.114;2023-06-10T15:14:24;5.85;;;4.03;;
59169;SDS011;52474;52.236;5.114;2023-06-10T15:16:51;5.07;;;4.15;;